sensor_id;sensor_type;location;lat;lon;timestamp;pressure;altitude;pressure_sealevel;temperature;humidity
26112;BME280;13829;48.990;8.346;2023-04-15T00:02:16;99543.69;;;5.55;83.95
26112;BME280;13829;48.990;8.346;2023-04-15T00:04:44;99543.69;;;5.55;85.69
26112;BME280;13829;48.990;8.346;2023-04-15T00:07:13;99543.69;;;5.55;85.34
26112;BME280;13829;48.990;8.346;2023-04-15T00:09:41;99549.81;;;5.59;85.79
26112;BME280;13829;48.990;8.346;2023-04-15T00:12:08;99544.63;;;5.65;84.98
26112;BME280;13829;48.990;8.346;2023-04-15T00:14:35;99541.06;;;5.55;84.72
26112;BME280;13829;48.990;8.346;2023-04-15T00:17:02;99537.50;;;5.48;86.15
26112;BME280;13829;48.990;8.346;2023-04-15T00:19:30;99542.78;;;5.54;86.34
26112;BME280;13829;48.990;8.346;2023-04-15T00:21:58;99533.19;;;5.52;85.96
26112;BME280;13829;48.990;8.346;2023-04-15T00:24:27;99534.94;;;5.50;85.71
26112;BME280;13829;48.990;8.346;2023-04-15T00:26:56;99533.13;;;5.46;87.05
26112;BME280;13829;48.990;8.346;2023-04-15T00:29:23;99524.41;;;5.44;86.57
26112;BME280;13829;48.990;8.346;2023-04-15T00:31:50;99530.41;;;5.36;86.06
26112;BME280;13829;48.990;8.346;2023-04-15T00:34:17;99520.97;;;5.48;85.66
26112;BME280;13829;48.990;8.346;2023-04-15T00:36:44;99520.97;;;5.45;86.84
26112;BME280;13829;48.990;8.346;2023-04-15T00:39:11;99527.06;;;5.47;86.83
26112;BME280;13829;48.990;8.346;2023-04-15T00:41:40;99528.66;;;5.35;86.40
26112;BME280;13829;48.990;8.346;2023-04-15T00:44:07;99527.81;;;5.36;86.50
26112;BME280;13829;48.990;8.346;2023-04-15T00:46:36;99524.50;;;5.53;85.89
26112;BME280;13829;48.990;8.346;2023-04-15T00:49:05;99515.84;;;5.54;86.05
26112;BME280;13829;48.990;8.346;2023-04-15T00:51:32;99520.00;;;5.38;86.99
26112;BME280;13829;48.990;8.346;2023-04-15T00:54:01;99521.75;;;5.39;86.22
26112;BME280;13829;48.990;8.346;2023-04-15T00:56:29;99528.75;;;5.43;86.39
26112;BME280;13829;48.990;8.346;2023-04-15T00:58:58;99526.50;;;5.74;86.21
26112;BME280;13829;48.990;8.346;2023-04-15T01:01:26;99518.53;;;5.65;86.66
26112;BME280;13829;48.990;8.346;2023-04-15T01:03:55;99522.13;;;5.71;86.54
26112;BME280;13829;48.990;8.346;2023-04-15T01:06:23;99519.47;;;5.68;86.80
26112;BME280;13829;48.990;8.346;2023-04-15T01:08:52;99514.31;;;5.75;87.46
26112;BME280;13829;48.990;8.346;2023-04-15T01:11:20;99507.44;;;5.84;86.85
26112;BME280;13829;48.990;8.346;2023-04-15T01:13:47;99511.91;;;5.96;86.18
26112;BME280;13829;48.990;8.346;2023-04-15T01:16:15;99506.69;;;5.95;86.37
26112;BME280;13829;48.990;8.346;2023-04-15T01:18:42;99512.84;;;5.98;86.25
26112;BME280;13829;48.990;8.346;2023-04-15T01:21:10;99517.09;;;5.92;86.15
26112;BME280;13829;48.990;8.346;2023-04-15T01:23:38;99517.06;;;5.88;86.83
26112;BME280;13829;48.990;8.346;2023-04-15T01:26:07;99515.19;;;5.75;87.41
26112;BME280;13829;48.990;8.346;2023-04-15T01:28:35;99514.22;;;5.65;88.13
26112;BME280;13829;48.990;8.346;2023-04-15T01:31:07;99525.50;;;5.61;88.61
26112;BME280;13829;48.990;8.346;2023-04-15T01:33:34;99516.78;;;5.62;89.18
26112;BME280;13829;48.990;8.346;2023-04-15T01:36:01;99515.06;;;5.63;89.38
26112;BME280;13829;48.990;8.346;2023-04-15T01:38:29;99510.66;;;5.57;89.79
26112;BME280;13829;48.990;8.346;2023-04-15T01:40:56;99516.78;;;5.61;89.53
26112;BME280;13829;48.990;8.346;2023-04-15T01:43:25;99517.53;;;5.52;89.60
26112;BME280;13829;48.990;8.346;2023-04-15T01:45:52;99519.28;;;5.50;88.98
26112;BME280;13829;48.990;8.346;2023-04-15T01:48:20;99514.94;;;5.52;89.53
26112;BME280;13829;48.990;8.346;2023-04-15T01:50:48;99520.22;;;5.55;88.98
26112;BME280;13829;48.990;8.346;2023-04-15T01:53:15;99514.94;;;5.53;89.32
26112;BME280;13829;48.990;8.346;2023-04-15T01:55:42;99514.00;;;5.47;89.76
26112;BME280;13829;48.990;8.346;2023-04-15T01:58:08;99513.91;;;5.36;89.91
26112;BME280;13829;48.990;8.346;2023-04-15T02:00:37;99506.88;;;5.32;90.74
26112;BME280;13829;48.990;8.346;2023-04-15T02:03:04;99515.53;;;5.26;91.22
26112;BME280;13829;48.990;8.346;2023-04-15T02:05:31;99512.94;;;5.29;91.53
26112;BME280;13829;48.990;8.346;2023-04-15T02:07:58;99511.97;;;5.21;91.58
26112;BME280;13829;48.990;8.346;2023-04-15T02:10:25;99518.03;;;5.20;91.71
26112;BME280;13829;48.990;8.346;2023-04-15T02:12:53;99523.25;;;5.17;92.11
26112;BME280;13829;48.990;8.346;2023-04-15T02:15:20;99517.97;;;5.12;92.37
26112;BME280;13829;48.990;8.346;2023-04-15T02:17:48;99522.56;;;5.33;90.58
26112;BME280;13829;48.990;8.346;2023-04-15T02:20:18;99527.06;;;5.47;90.19
26112;BME280;13829;48.990;8.346;2023-04-15T02:22:45;99541.50;;;5.20;90.64
26112;BME280;13829;48.990;8.346;2023-04-15T02:25:13;99541.41;;;5.11;91.51
26112;BME280;13829;48.990;8.346;2023-04-15T02:27:41;99534.22;;;4.94;92.99
26112;BME280;13829;48.990;8.346;2023-04-15T02:30:09;99535.00;;;4.87;93.63
26112;BME280;13829;48.990;8.346;2023-04-15T02:32:36;99531.53;;;4.86;93.66
26112;BME280;13829;48.990;8.346;2023-04-15T02:35:07;99528.78;;;4.79;94.23
26112;BME280;13829;48.990;8.346;2023-04-15T02:37:36;99529.81;;;4.90;94.35
26112;BME280;13829;48.990;8.346;2023-04-15T02:40:08;99535.09;;;4.96;93.76
26112;BME280;13829;48.990;8.346;2023-04-15T02:42:37;99529.75;;;4.85;94.53
26112;BME280;13829;48.990;8.346;2023-04-15T02:45:05;99537.53;;;4.84;94.84
26112;BME280;13829;48.990;8.346;2023-04-15T02:47:32;99535.75;;;4.80;93.94
26112;BME280;13829;48.990;8.346;2023-04-15T02:50:02;99535.75;;;4.80;94.34
26112;BME280;13829;48.990;8.346;2023-04-15T02:52:30;99533.97;;;4.76;94.12
26112;BME280;13829;48.990;8.346;2023-04-15T02:54:57;99528.63;;;4.66;94.40
26112;BME280;13829;48.990;8.346;2023-04-15T02:57:25;99536.69;;;4.85;93.57
26112;BME280;13829;48.990;8.346;2023-04-15T02:59:54;99525.25;;;4.73;92.72
26112;BME280;13829;48.990;8.346;2023-04-15T03:02:21;99530.44;;;4.72;93.02
26112;BME280;13829;48.990;8.346;2023-04-15T03:04:48;99536.44;;;4.66;93.25
26112;BME280;13829;48.990;8.346;2023-04-15T03:07:16;99535.41;;;4.55;93.94
26112;BME280;13829;48.990;8.346;2023-04-15T03:09:44;99533.69;;;4.57;93.63
26112;BME280;13829;48.990;8.346;2023-04-15T03:12:12;99526.91;;;4.68;93.30
26112;BME280;13829;48.990;8.346;2023-04-15T03:14:39;99533.75;;;4.62;93.65
26112;BME280;13829;48.990;8.346;2023-04-15T03:17:06;99531.13;;;4.59;93.91
26112;BME280;13829;48.990;8.346;2023-04-15T03:19:33;99537.06;;;4.50;93.83
26112;BME280;13829;48.990;8.346;2023-04-15T03:22:00;99531.03;;;4.52;93.41
26112;BME280;13829;48.990;8.346;2023-04-15T03:24:27;99536.13;;;4.45;94.10
26112;BME280;13829;48.990;8.346;2023-04-15T03:26:56;99533.34;;;4.35;93.15
26112;BME280;13829;48.990;8.346;2023-04-15T03:29:23;99538.53;;;4.34;93.65
26112;BME280;13829;48.990;8.346;2023-04-15T03:31:51;99533.44;;;4.41;93.61
26112;BME280;13829;48.990;8.346;2023-04-15T03:34:18;99535.28;;;4.47;93.85
26112;BME280;13829;48.990;8.346;2023-04-15T03:36:45;99529.78;;;4.30;93.61
26112;BME280;13829;48.990;8.346;2023-04-15T03:39:12;99531.47;;;4.28;93.80
26112;BME280;13829;48.990;8.346;2023-04-15T03:41:39;99534.13;;;4.30;93.43
26112;BME280;13829;48.990;8.346;2023-04-15T03:44:08;99538.31;;;4.20;94.04
26112;BME280;13829;48.990;8.346;2023-04-15T03:46:35;99538.34;;;4.23;93.79
26112;BME280;13829;48.990;8.346;2023-04-15T03:49:02;99533.94;;;4.19;94.32
26112;BME280;13829;48.990;8.346;2023-04-15T03:51:28;99540.09;;;4.24;94.10
26112;BME280;13829;48.990;8.346;2023-04-15T03:53:56;99539.13;;;4.17;94.21
26112;BME280;13829;48.990;8.346;2023-04-15T03:56:23;99539.13;;;4.16;93.87
26112;BME280;13829;48.990;8.346;2023-04-15T03:58:50;99533.91;;;4.16;92.99
26112;BME280;13829;48.990;8.346;2023-04-15T04:01:18;99534.69;;;4.12;93.85
26112;BME280;13829;48.990;8.346;2023-04-15T04:03:46;99526.84;;;4.10;93.79
26112;BME280;13829;48.990;8.346;2023-04-15T04:06:13;99526.03;;;4.13;93.81
26112;BME280;13829;48.990;8.346;2023-04-15T04:08:41;99529.47;;;4.12;94.08
26112;BME280;13829;48.990;8.346;2023-04-15T04:11:08;99528.56;;;4.08;93.27
26112;BME280;13829;48.990;8.346;2023-04-15T04:13:35;99535.66;;;4.17;92.85
26112;BME280;13829;48.990;8.346;2023-04-15T04:16:02;99536.56;;;4.19;92.46
26112;BME280;13829;48.990;8.346;2023-04-15T04:18:31;99535.34;;;4.00;92.82
26112;BME280;13829;48.990;8.346;2023-04-15T04:20:59;99546.59;;;3.97;93.63
26112;BME280;13829;48.990;8.346;2023-04-15T04:23:26;99537.25;;;4.08;94.39
26112;BME280;13829;48.990;8.346;2023-04-15T04:25:53;99542.59;;;4.18;93.78
26112;BME280;13829;48.990;8.346;2023-04-15T04:28:20;99544.13;;;4.05;93.58
26112;BME280;13829;48.990;8.346;2023-04-15T04:30:47;99548.34;;;3.98;93.85
26112;BME280;13829;48.990;8.346;2023-04-15T04:33:14;99552.84;;;4.08;94.35
26112;BME280;13829;48.990;8.346;2023-04-15T04:35:42;99548.50;;;4.07;94.39
26112;BME280;13829;48.990;8.346;2023-04-15T04:38:09;99551.41;;;4.24;94.93
26112;BME280;13829;48.990;8.346;2023-04-15T04:40:36;99556.44;;;4.15;95.03
26112;BME280;13829;48.990;8.346;2023-04-15T04:43:03;99564.19;;;4.11;95.38
26112;BME280;13829;48.990;8.346;2023-04-15T04:45:30;99557.47;;;4.23;95.35
26112;BME280;13829;48.990;8.346;2023-04-15T04:47:57;99560.78;;;4.15;95.63
26112;BME280;13829;48.990;8.346;2023-04-15T04:50:24;99559.09;;;4.17;94.87
26112;BME280;13829;48.990;8.346;2023-04-15T04:52:53;99559.91;;;4.14;95.20
26112;BME280;13829;48.990;8.346;2023-04-15T04:55:20;99564.94;;;4.05;95.55
26112;BME280;13829;48.990;8.346;2023-04-15T04:57:47;99565.88;;;4.10;95.81
26112;BME280;13829;48.990;8.346;2023-04-15T05:00:14;99564.41;;;4.24;95.09
26112;BME280;13829;48.990;8.346;2023-04-15T05:02:41;99575.69;;;4.25;95.07
26112;BME280;13829;48.990;8.346;2023-04-15T05:05:09;99569.56;;;4.23;95.10
26112;BME280;13829;48.990;8.346;2023-04-15T05:07:36;99572.13;;;4.18;95.26
26112;BME280;13829;48.990;8.346;2023-04-15T05:10:07;99571.28;;;4.19;95.48
26112;BME280;13829;48.990;8.346;2023-04-15T05:12:35;99567.84;;;4.22;96.09
26112;BME280;13829;48.990;8.346;2023-04-15T05:15:04;99569.84;;;4.38;95.13
26112;BME280;13829;48.990;8.346;2023-04-15T05:17:31;99568.19;;;4.44;95.69
26112;BME280;13829;48.990;8.346;2023-04-15T05:20:00;99573.53;;;4.53;95.34
26112;BME280;13829;48.990;8.346;2023-04-15T05:22:27;99576.94;;;4.47;94.68
26112;BME280;13829;48.990;8.346;2023-04-15T05:24:54;99579.56;;;4.49;95.49
26112;BME280;13829;48.990;8.346;2023-04-15T05:27:22;99572.28;;;4.83;94.17
26112;BME280;13829;48.990;8.346;2023-04-15T05:29:49;99578.13;;;4.68;95.08
26112;BME280;13829;48.990;8.346;2023-04-15T05:32:16;99580.75;;;4.69;95.75
26112;BME280;13829;48.990;8.346;2023-04-15T05:34:43;99585.19;;;4.75;96.15
26112;BME280;13829;48.990;8.346;2023-04-15T05:37:10;99577.53;;;4.86;96.28
26112;BME280;13829;48.990;8.346;2023-04-15T05:39:37;99578.53;;;4.94;95.91
26112;BME280;13829;48.990;8.346;2023-04-15T05:42:04;99577.72;;;5.00;96.43
26112;BME280;13829;48.990;8.346;2023-04-15T05:44:33;99579.59;;;5.09;96.25
26112;BME280;13829;48.990;8.346;2023-04-15T05:47:00;99582.19;;;5.10;96.21
26112;BME280;13829;48.990;8.346;2023-04-15T05:49:28;99581.47;;;5.19;97.99
26112;BME280;13829;48.990;8.346;2023-04-15T05:51:55;99590.47;;;5.43;97.99
26112;BME280;13829;48.990;8.346;2023-04-15T05:54:22;99594.16;;;5.62;98.59
26112;BME280;13829;48.990;8.346;2023-04-15T05:56:49;99589.13;;;5.79;99.08
26112;BME280;13829;48.990;8.346;2023-04-15T05:59:16;99597.19;;;5.97;97.79
26112;BME280;13829;48.990;8.346;2023-04-15T06:01:44;99593.88;;;6.11;96.72
26112;BME280;13829;48.990;8.346;2023-04-15T06:04:11;99590.50;;;6.26;97.20
26112;BME280;13829;48.990;8.346;2023-04-15T06:06:38;99584.53;;;6.38;97.12
26112;BME280;13829;48.990;8.346;2023-04-15T06:09:05;99588.13;;;6.52;95.44
26112;BME280;13829;48.990;8.346;2023-04-15T06:11:32;99589.09;;;6.62;94.29
26112;BME280;13829;48.990;8.346;2023-04-15T06:13:59;99585.69;;;6.71;93.40
26112;BME280;13829;48.990;8.346;2023-04-15T06:16:26;99591.06;;;6.89;93.80
26112;BME280;13829;48.990;8.346;2023-04-15T06:18:54;99587.66;;;7.07;93.74
26112;BME280;13829;48.990;8.346;2023-04-15T06:21:21;99589.53;;;7.28;92.64
26112;BME280;13829;48.990;8.346;2023-04-15T06:23:48;99598.34;;;7.47;92.62
26112;BME280;13829;48.990;8.346;2023-04-15T06:26:15;99588.81;;;7.70;91.29
26112;BME280;13829;48.990;8.346;2023-04-15T06:28:42;99590.63;;;7.83;89.63
26112;BME280;13829;48.990;8.346;2023-04-15T06:31:09;99602.84;;;7.90;88.78
26112;BME280;13829;48.990;8.346;2023-04-15T06:33:36;99595.03;;;8.10;88.11
26112;BME280;13829;48.990;8.346;2023-04-15T06:36:06;99589.88;;;8.41;86.24
26112;BME280;13829;48.990;8.346;2023-04-15T06:38:33;99595.13;;;8.54;83.81
26112;BME280;13829;48.990;8.346;2023-04-15T06:41:00;99590.78;;;8.59;83.10
26112;BME280;13829;48.990;8.346;2023-04-15T06:43:27;99589.00;;;8.81;82.18
26112;BME280;13829;48.990;8.346;2023-04-15T06:45:54;99595.09;;;9.00;78.92
26112;BME280;13829;48.990;8.346;2023-04-15T06:48:21;99597.47;;;9.76;77.77
26112;BME280;13829;48.990;8.346;2023-04-15T06:50:48;99587.28;;;11.53;69.72
26112;BME280;13829;48.990;8.346;2023-04-15T06:53:17;99575.84;;;13.70;61.11
26112;BME280;13829;48.990;8.346;2023-04-15T06:55:44;99571.50;;;15.48;53.64
26112;BME280;13829;48.990;8.346;2023-04-15T06:58:11;99567.38;;;17.33;47.44
26112;BME280;13829;48.990;8.346;2023-04-15T07:00:38;99557.16;;;18.60;42.02
26112;BME280;13829;48.990;8.346;2023-04-15T07:03:05;99555.72;;;18.51;42.61
26112;BME280;13829;48.990;8.346;2023-04-15T07:05:34;99564.75;;;18.69;40.46
26112;BME280;13829;48.990;8.346;2023-04-15T07:08:01;99564.47;;;18.55;40.34
26112;BME280;13829;48.990;8.346;2023-04-15T07:10:31;99572.00;;;19.09;40.33
26112;BME280;13829;48.990;8.346;2023-04-15T07:12:58;99566.47;;;18.70;41.66
26112;BME280;13829;48.990;8.346;2023-04-15T07:15:25;99564.88;;;19.49;40.34
26112;BME280;13829;48.990;8.346;2023-04-15T07:17:52;99568.38;;;19.51;39.72
26112;BME280;13829;48.990;8.346;2023-04-15T07:20:19;99565.28;;;17.89;42.57
26112;BME280;13829;48.990;8.346;2023-04-15T07:22:46;99567.53;;;17.03;45.22
26112;BME280;13829;48.990;8.346;2023-04-15T07:25:13;99569.16;;;16.80;47.77
26112;BME280;13829;48.990;8.346;2023-04-15T07:27:41;99569.59;;;16.95;47.36
26112;BME280;13829;48.990;8.346;2023-04-15T07:30:09;99572.41;;;16.35;43.95
26112;BME280;13829;48.990;8.346;2023-04-15T07:32:37;99586.16;;;15.60;44.36
26112;BME280;13829;48.990;8.346;2023-04-15T07:35:05;99581.66;;;15.32;47.66
26112;BME280;13829;48.990;8.346;2023-04-15T07:37:32;99586.00;;;14.67;48.27
26112;BME280;13829;48.990;8.346;2023-04-15T07:39:59;99587.03;;;14.60;48.49
26112;BME280;13829;48.990;8.346;2023-04-15T07:42:26;99587.56;;;14.38;49.96
26112;BME280;13829;48.990;8.346;2023-04-15T07:44:56;99595.34;;;14.05;49.28
26112;BME280;13829;48.990;8.346;2023-04-15T07:47:22;99607.50;;;13.72;48.74
26112;BME280;13829;48.990;8.346;2023-04-15T07:49:50;99603.94;;;13.29;49.46
26112;BME280;13829;48.990;8.346;2023-04-15T07:52:17;99598.47;;;12.91;51.26
26112;BME280;13829;48.990;8.346;2023-04-15T07:54:44;99600.78;;;12.58;52.02
26112;BME280;13829;48.990;8.346;2023-04-15T07:57:11;99604.06;;;12.13;54.15
26112;BME280;13829;48.990;8.346;2023-04-15T07:59:38;99598.78;;;12.16;55.23
26112;BME280;13829;48.990;8.346;2023-04-15T08:02:06;99598.00;;;12.66;55.55
26112;BME280;13829;48.990;8.346;2023-04-15T08:04:34;99605.06;;;13.15;54.40
26112;BME280;13829;48.990;8.346;2023-04-15T08:07:02;99603.75;;;13.40;54.18
26112;BME280;13829;48.990;8.346;2023-04-15T08:09:29;99593.13;;;13.44;54.97
26112;BME280;13829;48.990;8.346;2023-04-15T08:11:56;99602.13;;;13.31;55.35
26112;BME280;13829;48.990;8.346;2023-04-15T08:14:23;99597.25;;;13.09;55.76
26112;BME280;13829;48.990;8.346;2023-04-15T08:16:50;99598.25;;;13.52;55.35
26112;BME280;13829;48.990;8.346;2023-04-15T08:19:19;99596.00;;;13.74;55.13
26112;BME280;13829;48.990;8.346;2023-04-15T08:21:46;99594.50;;;14.03;53.17
26112;BME280;13829;48.990;8.346;2023-04-15T08:24:13;99591.66;;;14.12;52.96
26112;BME280;13829;48.990;8.346;2023-04-15T08:26:40;99596.00;;;14.52;50.48
26112;BME280;13829;48.990;8.346;2023-04-15T08:29:07;99597.09;;;14.81;51.06
26112;BME280;13829;48.990;8.346;2023-04-15T08:31:34;99594.06;;;15.30;48.68
26112;BME280;13829;48.990;8.346;2023-04-15T08:34:01;99599.28;;;15.33;48.98
26112;BME280;13829;48.990;8.346;2023-04-15T08:36:30;99601.72;;;15.41;49.28
26112;BME280;13829;48.990;8.346;2023-04-15T08:38:57;99601.16;;;15.61;48.35
26112;BME280;13829;48.990;8.346;2023-04-15T08:41:33;99600.38;;;15.57;48.57
26112;BME280;13829;48.990;8.346;2023-04-15T08:44:05;99606.81;;;15.15;48.33
26112;BME280;13829;48.990;8.346;2023-04-15T08:46:33;99607.69;;;15.16;47.40
26112;BME280;13829;48.990;8.346;2023-04-15T08:49:03;99602.56;;;15.41;46.96
26112;BME280;13829;48.990;8.346;2023-04-15T08:51:33;99600.59;;;15.49;46.33
26112;BME280;13829;48.990;8.346;2023-04-15T08:54:00;99606.47;;;15.61;44.76
26112;BME280;13829;48.990;8.346;2023-04-15T08:56:30;99609.06;;;15.62;44.43
26112;BME280;13829;48.990;8.346;2023-04-15T08:58:58;99602.63;;;15.71;48.57
26112;BME280;13829;48.990;8.346;2023-04-15T09:01:26;99605.47;;;15.96;49.35
26112;BME280;13829;48.990;8.346;2023-04-15T09:03:53;99604.13;;;16.11;44.49
26112;BME280;13829;48.990;8.346;2023-04-15T09:06:20;99601.28;;;16.46;45.71
26112;BME280;13829;48.990;8.346;2023-04-15T09:08:49;99603.28;;;16.66;45.43
26112;BME280;13829;48.990;8.346;2023-04-15T09:11:18;99604.59;;;16.53;47.66
26112;BME280;13829;48.990;8.346;2023-04-15T09:13:45;99603.06;;;16.45;47.70
26112;BME280;13829;48.990;8.346;2023-04-15T09:16:12;99604.25;;;16.35;46.15
26112;BME280;13829;48.990;8.346;2023-04-15T09:18:40;99610.97;;;16.19;47.80
26112;BME280;13829;48.990;8.346;2023-04-15T09:21:09;99608.94;;;16.27;47.24
26112;BME280;13829;48.990;8.346;2023-04-15T09:23:38;99613.28;;;16.29;49.05
26112;BME280;13829;48.990;8.346;2023-04-15T09:26:07;99615.50;;;16.43;47.50
26112;BME280;13829;48.990;8.346;2023-04-15T09:28:41;99616.00;;;16.28;46.37
26112;BME280;13829;48.990;8.346;2023-04-15T09:31:08;99617.53;;;16.35;48.62
26112;BME280;13829;48.990;8.346;2023-04-15T09:33:54;99622.59;;;16.14;46.70
26112;BME280;13829;48.990;8.346;2023-04-15T09:36:22;99623.91;;;16.01;47.24
26112;BME280;13829;48.990;8.346;2023-04-15T09:38:55;99623.97;;;16.28;46.66
26112;BME280;13829;48.990;8.346;2023-04-15T09:41:24;99627.75;;;16.47;46.77
26112;BME280;13829;48.990;8.346;2023-04-15T09:43:52;99632.41;;;16.41;46.16
26112;BME280;13829;48.990;8.346;2023-04-15T09:46:19;99635.78;;;16.46;47.09
26112;BME280;13829;48.990;8.346;2023-04-15T09:48:46;99637.47;;;16.20;46.00
26112;BME280;13829;48.990;8.346;2023-04-15T09:51:13;99638.91;;;16.30;45.54
26112;BME280;13829;48.990;8.346;2023-04-15T09:53:40;99645.84;;;16.06;47.47
26112;BME280;13829;48.990;8.346;2023-04-15T09:56:07;99643.19;;;16.06;47.38
26112;BME280;13829;48.990;8.346;2023-04-15T09:58:37;99649.41;;;16.05;48.49
26112;BME280;13829;48.990;8.346;2023-04-15T10:01:06;99652.19;;;16.01;48.01
26112;BME280;13829;48.990;8.346;2023-04-15T10:03:34;99658.91;;;15.81;48.80
26112;BME280;13829;48.990;8.346;2023-04-15T10:06:02;99656.88;;;15.58;47.67
26112;BME280;13829;48.990;8.346;2023-04-15T10:08:32;99651.34;;;15.67;50.04
26112;BME280;13829;48.990;8.346;2023-04-15T10:11:01;99652.13;;;15.71;51.63
26112;BME280;13829;48.990;8.346;2023-04-15T10:13:31;99657.16;;;15.80;51.39
26112;BME280;13829;48.990;8.346;2023-04-15T10:16:07;99657.28;;;15.75;49.28
26112;BME280;13829;48.990;8.346;2023-04-15T10:18:42;99655.72;;;16.01;50.04
26112;BME280;13829;48.990;8.346;2023-04-15T10:21:11;99659.00;;;16.09;49.84
26112;BME280;13829;48.990;8.346;2023-04-15T10:23:44;99646.94;;;16.27;49.59
26112;BME280;13829;48.990;8.346;2023-04-15T10:26:12;99651.94;;;16.08;47.90
26112;BME280;13829;48.990;8.346;2023-04-15T10:28:40;99651.94;;;16.08;46.96
26112;BME280;13829;48.990;8.346;2023-04-15T10:31:11;99660.38;;;15.93;45.43
26112;BME280;13829;48.990;8.346;2023-04-15T10:33:42;99656.63;;;16.00;46.47
26112;BME280;13829;48.990;8.346;2023-04-15T10:36:10;99655.78;;;15.98;49.02
26112;BME280;13829;48.990;8.346;2023-04-15T10:38:40;99660.78;;;16.09;49.13
26112;BME280;13829;48.990;8.346;2023-04-15T10:41:20;99662.59;;;16.37;48.47
26112;BME280;13829;48.990;8.346;2023-04-15T10:43:49;99657.66;;;16.24;49.76
26112;BME280;13829;48.990;8.346;2023-04-15T10:46:37;99656.16;;;16.16;48.97
26112;BME280;13829;48.990;8.346;2023-04-15T10:49:08;99666.66;;;16.20;49.73
26112;BME280;13829;48.990;8.346;2023-04-15T10:51:38;99673.13;;;16.10;47.09
26112;BME280;13829;48.990;8.346;2023-04-15T10:54:12;99667.13;;;16.33;49.12
26112;BME280;13829;48.990;8.346;2023-04-15T10:56:41;99669.00;;;16.29;46.51
26112;BME280;13829;48.990;8.346;2023-04-15T10:59:09;99675.78;;;16.10;46.86
26112;BME280;13829;48.990;8.346;2023-04-15T11:01:55;99671.06;;;16.20;45.98
26112;BME280;13829;48.990;8.346;2023-04-15T11:04:53;99671.34;;;16.10;46.70
26112;BME280;13829;48.990;8.346;2023-04-15T11:07:40;99669.31;;;16.19;48.27
26112;BME280;13829;48.990;8.346;2023-04-15T11:10:51;99676.56;;;16.13;49.11
26112;BME280;13829;48.990;8.346;2023-04-15T11:13:27;99669.38;;;16.47;49.57
26112;BME280;13829;48.990;8.346;2023-04-15T11:16:00;99668.78;;;16.37;46.02
26112;BME280;13829;48.990;8.346;2023-04-15T11:18:32;99674.72;;;16.45;44.92
26112;BME280;13829;48.990;8.346;2023-04-15T11:21:03;99681.50;;;16.54;44.39
26112;BME280;13829;48.990;8.346;2023-04-15T11:23:34;99671.59;;;16.61;44.66
26112;BME280;13829;48.990;8.346;2023-04-15T11:26:03;99686.63;;;16.32;42.82
26112;BME280;13829;48.990;8.346;2023-04-15T11:28:34;99679.28;;;16.40;43.89
26112;BME280;13829;48.990;8.346;2023-04-15T11:31:10;99694.94;;;16.20;42.61
26112;BME280;13829;48.990;8.346;2023-04-15T11:33:45;99709.00;;;15.92;42.88
26112;BME280;13829;48.990;8.346;2023-04-15T11:36:12;99704.19;;;15.73;41.65
26112;BME280;13829;48.990;8.346;2023-04-15T11:38:42;99692.31;;;15.88;45.03
26112;BME280;13829;48.990;8.346;2023-04-15T11:41:10;99693.44;;;15.78;40.88
26112;BME280;13829;48.990;8.346;2023-04-15T11:43:37;99692.19;;;15.93;41.69
26112;BME280;13829;48.990;8.346;2023-04-15T11:46:05;99688.41;;;16.02;42.18
26112;BME280;13829;48.990;8.346;2023-04-15T11:48:35;99692.84;;;16.31;40.67
26112;BME280;13829;48.990;8.346;2023-04-15T11:51:05;99695.78;;;16.22;41.34
26112;BME280;13829;48.990;8.346;2023-04-15T11:53:41;99697.84;;;16.42;40.26
26112;BME280;13829;48.990;8.346;2023-04-15T11:56:09;99695.50;;;16.31;41.74
26112;BME280;13829;48.990;8.346;2023-04-15T11:58:38;99713.03;;;16.37;42.44
26112;BME280;13829;48.990;8.346;2023-04-15T12:01:06;99700.44;;;16.43;41.97
26112;BME280;13829;48.990;8.346;2023-04-15T12:03:38;99703.81;;;16.49;43.97
26112;BME280;13829;48.990;8.346;2023-04-15T12:06:12;99696.22;;;16.36;43.55
26112;BME280;13829;48.990;8.346;2023-04-15T12:09:00;99709.78;;;16.27;43.22
26112;BME280;13829;48.990;8.346;2023-04-15T12:11:33;99709.94;;;16.21;40.36
26112;BME280;13829;48.990;8.346;2023-04-15T12:14:10;99709.94;;;16.51;40.71
26112;BME280;13829;48.990;8.346;2023-04-15T12:16:40;99709.00;;;16.52;42.73
26112;BME280;13829;48.990;8.346;2023-04-15T12:19:11;99708.63;;;16.64;44.68
26112;BME280;13829;48.990;8.346;2023-04-15T12:21:44;99729.16;;;16.59;40.00
26112;BME280;13829;48.990;8.346;2023-04-15T12:24:12;99734.38;;;16.32;37.88
26112;BME280;13829;48.990;8.346;2023-04-15T12:26:45;99726.53;;;16.27;37.99
26112;BME280;13829;48.990;8.346;2023-04-15T12:29:14;99736.75;;;16.11;39.24
26112;BME280;13829;48.990;8.346;2023-04-15T12:31:50;99729.53;;;16.17;40.12
26112;BME280;13829;48.990;8.346;2023-04-15T12:34:25;99738.47;;;16.12;41.25
26112;BME280;13829;48.990;8.346;2023-04-15T12:36:55;99742.97;;;16.10;38.84
26112;BME280;13829;48.990;8.346;2023-04-15T12:39:24;99758.13;;;16.37;38.70
26112;BME280;13829;48.990;8.346;2023-04-15T12:41:52;99745.34;;;16.20;39.80
26112;BME280;13829;48.990;8.346;2023-04-15T12:44:21;99740.00;;;16.51;42.35
26112;BME280;13829;48.990;8.346;2023-04-15T12:46:49;99737.16;;;16.87;38.85
26112;BME280;13829;48.990;8.346;2023-04-15T12:49:16;99742.25;;;16.95;36.86
26112;BME280;13829;48.990;8.346;2023-04-15T12:51:46;99755.16;;;16.77;36.06
26112;BME280;13829;48.990;8.346;2023-04-15T12:54:16;99753.03;;;16.59;35.57
26112;BME280;13829;48.990;8.346;2023-04-15T12:56:43;99755.69;;;16.59;35.47
26112;BME280;13829;48.990;8.346;2023-04-15T12:59:10;99755.63;;;16.62;35.36
26112;BME280;13829;48.990;8.346;2023-04-15T13:01:38;99759.38;;;16.55;39.47
26112;BME280;13829;48.990;8.346;2023-04-15T13:04:05;99751.47;;;16.53;39.63
26112;BME280;13829;48.990;8.346;2023-04-15T13:06:32;99759.91;;;16.66;40.45
26112;BME280;13829;48.990;8.346;2023-04-15T13:08:59;99762.34;;;16.74;37.42
26112;BME280;13829;48.990;8.346;2023-04-15T13:11:29;99764.50;;;16.61;36.47
26112;BME280;13829;48.990;8.346;2023-04-15T13:13:59;99766.97;;;16.67;36.00